sensor_id;sensor_type;location;lat;lon;timestamp;P1;durP1;ratioP1;P2;durP2;ratioP2
35887;SDS011;21990;42.540;23.496;2023-04-09T00:00:14;25.00;;;17.23;;
35887;SDS011;21990;42.540;23.496;2023-04-09T00:02:40;27.38;;;16.13;;
35887;SDS011;21990;42.540;23.496;2023-04-09T00:05:06;22.80;;;16.23;;
35887;SDS011;21990;42.540;23.496;2023-04-09T00:07:32;21.15;;;15.32;;
35887;SDS011;21990;42.540;23.496;2023-04-09T00:09:57;23.58;;;14.68;;
35887;SDS011;21990;42.540;23.496;2023-04-09T00:12:23;20.80;;;14.77;;
35887;SDS011;21990;42.540;23.496;2023-04-09T00:14:48;21.73;;;14.90;;
35887;SDS011;21990;42.540;23.496;2023-04-09T00:17:14;22.52;;;15.23;;
35887;SDS011;21990;42.540;23.496;2023-04-09T00:19:40;23.70;;;16.27;;
35887;SDS011;21990;42.540;23.496;2023-04-09T00:22:05;25.23;;;16.23;;
35887;SDS011;21990;42.540;23.496;2023-04-09T00:24:31;27.58;;;15.57;;
35887;SDS011;21990;42.540;23.496;2023-04-09T00:26:56;29.63;;;18.50;;
35887;SDS011;21990;42.540;23.496;2023-04-09T00:29:22;23.88;;;15.77;;
35887;SDS011;21990;42.540;23.496;2023-04-09T00:31:47;22.38;;;15.07;;
35887;SDS011;21990;42.540;23.496;2023-04-09T00:34:13;22.45;;;14.85;;
35887;SDS011;21990;42.540;23.496;2023-04-09T00:36:38;25.00;;;15.93;;
35887;SDS011;21990;42.540;23.496;2023-04-09T00:39:04;24.70;;;17.48;;
35887;SDS011;21990;42.540;23.496;2023-04-09T00:41:30;22.35;;;15.70;;
35887;SDS011;21990;42.540;23.496;2023-04-09T00:43:55;28.55;;;17.48;;
35887;SDS011;21990;42.540;23.496;2023-04-09T00:46:21;42.33;;;25.30;;
35887;SDS011;21990;42.540;23.496;2023-04-09T00:48:47;36.38;;;21.90;;
35887;SDS011;21990;42.540;23.496;2023-04-09T00:51:12;26.80;;;16.75;;
35887;SDS011;21990;42.540;23.496;2023-04-09T00:53:38;22.55;;;15.00;;
35887;SDS011;21990;42.540;23.496;2023-04-09T00:56:03;19.73;;;14.07;;
35887;SDS011;21990;42.540;23.496;2023-04-09T00:58:30;25.33;;;14.93;;
35887;SDS011;21990;42.540;23.496;2023-04-09T01:00:55;21.30;;;14.48;;
35887;SDS011;21990;42.540;23.496;2023-04-09T01:03:21;24.73;;;16.23;;
35887;SDS011;21990;42.540;23.496;2023-04-09T01:05:57;23.70;;;15.35;;
35887;SDS011;21990;42.540;23.496;2023-04-09T01:16:35;25.75;;;15.82;;
35887;SDS011;21990;42.540;23.496;2023-04-09T01:19:08;22.52;;;15.13;;
35887;SDS011;21990;42.540;23.496;2023-04-09T01:21:43;29.35;;;16.30;;
35887;SDS011;21990;42.540;23.496;2023-04-09T01:27:06;32.17;;;20.33;;
35887;SDS011;21990;42.540;23.496;2023-04-09T01:29:38;27.02;;;18.70;;
35887;SDS011;21990;42.540;23.496;2023-04-09T01:32:09;28.73;;;19.20;;
35887;SDS011;21990;42.540;23.496;2023-04-09T01:34:36;28.75;;;18.83;;
35887;SDS011;21990;42.540;23.496;2023-04-09T01:37:03;24.40;;;17.35;;
35887;SDS011;21990;42.540;23.496;2023-04-09T01:39:29;28.00;;;17.40;;
35887;SDS011;21990;42.540;23.496;2023-04-09T01:41:55;27.75;;;16.23;;
35887;SDS011;21990;42.540;23.496;2023-04-09T01:44:22;27.40;;;17.75;;
35887;SDS011;21990;42.540;23.496;2023-04-09T01:46:49;25.48;;;16.80;;
35887;SDS011;21990;42.540;23.496;2023-04-09T01:49:16;25.15;;;17.00;;
35887;SDS011;21990;42.540;23.496;2023-04-09T01:51:42;29.13;;;18.80;;
35887;SDS011;21990;42.540;23.496;2023-04-09T01:54:08;26.65;;;17.15;;
35887;SDS011;21990;42.540;23.496;2023-04-09T01:56:43;24.58;;;16.95;;
35887;SDS011;21990;42.540;23.496;2023-04-09T01:59:10;26.13;;;16.95;;
35887;SDS011;21990;42.540;23.496;2023-04-09T02:01:46;25.45;;;17.63;;
35887;SDS011;21990;42.540;23.496;2023-04-09T02:04:25;27.42;;;18.10;;
35887;SDS011;21990;42.540;23.496;2023-04-09T02:06:56;30.02;;;18.45;;
35887;SDS011;21990;42.540;23.496;2023-04-09T02:09:29;31.70;;;19.33;;
35887;SDS011;21990;42.540;23.496;2023-04-09T02:12:01;33.22;;;20.73;;
35887;SDS011;21990;42.540;23.496;2023-04-09T02:14:30;33.80;;;21.10;;
35887;SDS011;21990;42.540;23.496;2023-04-09T02:16:57;32.75;;;20.85;;
35887;SDS011;21990;42.540;23.496;2023-04-09T02:19:23;29.98;;;18.20;;
35887;SDS011;21990;42.540;23.496;2023-04-09T02:21:49;29.65;;;19.38;;
35887;SDS011;21990;42.540;23.496;2023-04-09T02:24:14;27.02;;;19.08;;
35887;SDS011;21990;42.540;23.496;2023-04-09T02:26:40;30.90;;;19.52;;
35887;SDS011;21990;42.540;23.496;2023-04-09T02:29:05;32.50;;;20.77;;
35887;SDS011;21990;42.540;23.496;2023-04-09T02:31:31;36.83;;;21.13;;
35887;SDS011;21990;42.540;23.496;2023-04-09T02:33:56;28.48;;;19.55;;
35887;SDS011;21990;42.540;23.496;2023-04-09T02:36:22;35.28;;;21.48;;
35887;SDS011;21990;42.540;23.496;2023-04-09T02:38:47;31.77;;;20.42;;
35887;SDS011;21990;42.540;23.496;2023-04-09T02:41:13;32.45;;;20.52;;
35887;SDS011;21990;42.540;23.496;2023-04-09T02:43:38;36.72;;;22.25;;
35887;SDS011;21990;42.540;23.496;2023-04-09T02:46:04;35.20;;;20.15;;
35887;SDS011;21990;42.540;23.496;2023-04-09T02:48:30;32.00;;;21.25;;
35887;SDS011;21990;42.540;23.496;2023-04-09T02:50:56;36.30;;;22.98;;
35887;SDS011;21990;42.540;23.496;2023-04-09T02:53:22;31.75;;;19.73;;
35887;SDS011;21990;42.540;23.496;2023-04-09T02:55:47;28.23;;;19.08;;
35887;SDS011;21990;42.540;23.496;2023-04-09T02:58:13;33.03;;;20.40;;
35887;SDS011;21990;42.540;23.496;2023-04-09T03:00:38;30.50;;;20.10;;
35887;SDS011;21990;42.540;23.496;2023-04-09T03:03:04;32.25;;;21.38;;
35887;SDS011;21990;42.540;23.496;2023-04-09T03:05:29;33.65;;;20.42;;
35887;SDS011;21990;42.540;23.496;2023-04-09T03:07:55;33.63;;;20.58;;
35887;SDS011;21990;42.540;23.496;2023-04-09T03:10:21;31.20;;;20.05;;
35887;SDS011;21990;42.540;23.496;2023-04-09T03:12:46;29.75;;;19.02;;
35887;SDS011;21990;42.540;23.496;2023-04-09T03:15:12;34.03;;;21.10;;
35887;SDS011;21990;42.540;23.496;2023-04-09T03:17:38;29.85;;;20.55;;
35887;SDS011;21990;42.540;23.496;2023-04-09T03:20:05;36.40;;;22.73;;
35887;SDS011;21990;42.540;23.496;2023-04-09T03:22:35;35.85;;;21.50;;
35887;SDS011;21990;42.540;23.496;2023-04-09T03:25:04;34.60;;;22.67;;
35887;SDS011;21990;42.540;23.496;2023-04-09T03:27:31;32.05;;;21.25;;
35887;SDS011;21990;42.540;23.496;2023-04-09T03:29:58;33.25;;;21.13;;
35887;SDS011;21990;42.540;23.496;2023-04-09T03:32:23;37.83;;;23.10;;
35887;SDS011;21990;42.540;23.496;2023-04-09T03:34:49;33.10;;;23.17;;
35887;SDS011;21990;42.540;23.496;2023-04-09T03:37:14;34.28;;;22.52;;
35887;SDS011;21990;42.540;23.496;2023-04-09T03:39:40;45.38;;;27.10;;
35887;SDS011;21990;42.540;23.496;2023-04-09T03:42:06;43.47;;;27.67;;
35887;SDS011;21990;42.540;23.496;2023-04-09T03:44:31;42.15;;;26.02;;
35887;SDS011;21990;42.540;23.496;2023-04-09T03:46:57;37.80;;;24.02;;
35887;SDS011;21990;42.540;23.496;2023-04-09T03:49:22;41.45;;;22.90;;
35887;SDS011;21990;42.540;23.496;2023-04-09T03:51:48;32.65;;;20.65;;
35887;SDS011;21990;42.540;23.496;2023-04-09T03:54:13;33.72;;;21.80;;
35887;SDS011;21990;42.540;23.496;2023-04-09T03:56:39;34.20;;;21.65;;
35887;SDS011;21990;42.540;23.496;2023-04-09T03:59:05;34.38;;;22.30;;
35887;SDS011;21990;42.540;23.496;2023-04-09T04:01:31;35.20;;;21.83;;
35887;SDS011;21990;42.540;23.496;2023-04-09T04:03:56;33.20;;;21.27;;
35887;SDS011;21990;42.540;23.496;2023-04-09T04:06:22;36.08;;;23.23;;
35887;SDS011;21990;42.540;23.496;2023-04-09T04:08:47;33.97;;;21.42;;
35887;SDS011;21990;42.540;23.496;2023-04-09T04:11:13;38.67;;;21.65;;
35887;SDS011;21990;42.540;23.496;2023-04-09T04:13:38;35.95;;;21.83;;
35887;SDS011;21990;42.540;23.496;2023-04-09T04:16:07;35.33;;;23.08;;
35887;SDS011;21990;42.540;23.496;2023-04-09T04:18:33;41.08;;;21.98;;
35887;SDS011;21990;42.540;23.496;2023-04-09T04:20:59;37.22;;;23.40;;
35887;SDS011;21990;42.540;23.496;2023-04-09T04:23:25;42.75;;;22.95;;
35887;SDS011;21990;42.540;23.496;2023-04-09T04:25:50;38.50;;;23.42;;
35887;SDS011;21990;42.540;23.496;2023-04-09T04:28:17;38.50;;;24.33;;
35887;SDS011;21990;42.540;23.496;2023-04-09T04:30:43;35.08;;;20.60;;
35887;SDS011;21990;42.540;23.496;2023-04-09T04:33:09;36.72;;;20.42;;
35887;SDS011;21990;42.540;23.496;2023-04-09T04:35:34;41.17;;;24.00;;
35887;SDS011;21990;42.540;23.496;2023-04-09T04:38:00;45.38;;;24.58;;
35887;SDS011;21990;42.540;23.496;2023-04-09T04:40:26;46.22;;;26.05;;
35887;SDS011;21990;42.540;23.496;2023-04-09T04:42:51;45.22;;;25.10;;
35887;SDS011;21990;42.540;23.496;2023-04-09T04:45:17;41.08;;;23.63;;
35887;SDS011;21990;42.540;23.496;2023-04-09T04:47:42;39.63;;;23.83;;
35887;SDS011;21990;42.540;23.496;2023-04-09T04:50:08;50.17;;;27.55;;
35887;SDS011;21990;42.540;23.496;2023-04-09T04:52:34;38.40;;;22.63;;
35887;SDS011;21990;42.540;23.496;2023-04-09T04:55:00;37.90;;;22.65;;
35887;SDS011;21990;42.540;23.496;2023-04-09T04:57:26;35.60;;;21.10;;
35887;SDS011;21990;42.540;23.496;2023-04-09T04:59:52;36.05;;;19.80;;
35887;SDS011;21990;42.540;23.496;2023-04-09T05:02:17;32.17;;;19.65;;
35887;SDS011;21990;42.540;23.496;2023-04-09T05:04:43;29.83;;;17.17;;
35887;SDS011;21990;42.540;23.496;2023-04-09T05:07:08;30.38;;;17.90;;
35887;SDS011;21990;42.540;23.496;2023-04-09T05:09:34;35.13;;;20.63;;
35887;SDS011;21990;42.540;23.496;2023-04-09T05:12:00;34.60;;;18.48;;
35887;SDS011;21990;42.540;23.496;2023-04-09T05:14:25;44.05;;;22.35;;
35887;SDS011;21990;42.540;23.496;2023-04-09T05:16:51;35.97;;;20.67;;
35887;SDS011;21990;42.540;23.496;2023-04-09T05:19:16;39.13;;;20.80;;
35887;SDS011;21990;42.540;23.496;2023-04-09T05:21:42;34.97;;;19.52;;
35887;SDS011;21990;42.540;23.496;2023-04-09T05:24:07;37.95;;;20.67;;
35887;SDS011;21990;42.540;23.496;2023-04-09T05:26:33;41.63;;;22.25;;
35887;SDS011;21990;42.540;23.496;2023-04-09T05:28:58;50.47;;;25.90;;
35887;SDS011;21990;42.540;23.496;2023-04-09T05:31:24;37.28;;;20.50;;
35887;SDS011;21990;42.540;23.496;2023-04-09T05:33:50;41.08;;;19.27;;
35887;SDS011;21990;42.540;23.496;2023-04-09T05:36:17;30.88;;;17.35;;
35887;SDS011;21990;42.540;23.496;2023-04-09T05:38:44;30.25;;;17.00;;
35887;SDS011;21990;42.540;23.496;2023-04-09T05:41:11;32.67;;;18.17;;
35887;SDS011;21990;42.540;23.496;2023-04-09T05:43:36;30.88;;;18.00;;
35887;SDS011;21990;42.540;23.496;2023-04-09T05:46:02;32.08;;;19.08;;
35887;SDS011;21990;42.540;23.496;2023-04-09T05:48:28;36.35;;;21.70;;
35887;SDS011;21990;42.540;23.496;2023-04-09T05:50:53;35.28;;;20.13;;
35887;SDS011;21990;42.540;23.496;2023-04-09T05:53:19;28.83;;;16.73;;
35887;SDS011;21990;42.540;23.496;2023-04-09T05:55:45;35.45;;;21.05;;
35887;SDS011;21990;42.540;23.496;2023-04-09T05:58:13;37.55;;;22.27;;
35887;SDS011;21990;42.540;23.496;2023-04-09T06:00:40;33.67;;;18.40;;
35887;SDS011;21990;42.540;23.496;2023-04-09T06:03:07;41.97;;;22.20;;
35887;SDS011;21990;42.540;23.496;2023-04-09T06:05:33;48.30;;;24.13;;
35887;SDS011;21990;42.540;23.496;2023-04-09T06:07:58;41.78;;;22.45;;
35887;SDS011;21990;42.540;23.496;2023-04-09T06:10:24;36.78;;;20.77;;
35887;SDS011;21990;42.540;23.496;2023-04-09T06:12:50;37.53;;;19.30;;
35887;SDS011;21990;42.540;23.496;2023-04-09T06:15:15;32.10;;;14.35;;
35887;SDS011;21990;42.540;23.496;2023-04-09T06:17:41;28.65;;;16.55;;
35887;SDS011;21990;42.540;23.496;2023-04-09T06:20:07;30.55;;;18.23;;
35887;SDS011;21990;42.540;23.496;2023-04-09T06:22:32;24.65;;;14.73;;
35887;SDS011;21990;42.540;23.496;2023-04-09T06:24:58;23.95;;;15.68;;
35887;SDS011;21990;42.540;23.496;2023-04-09T06:27:24;26.92;;;16.38;;
35887;SDS011;21990;42.540;23.496;2023-04-09T06:29:50;24.60;;;16.13;;
35887;SDS011;21990;42.540;23.496;2023-04-09T06:32:16;28.08;;;17.98;;
35887;SDS011;21990;42.540;23.496;2023-04-09T06:34:41;19.30;;;12.90;;
35887;SDS011;21990;42.540;23.496;2023-04-09T06:37:07;22.08;;;13.98;;
35887;SDS011;21990;42.540;23.496;2023-04-09T06:39:32;21.02;;;12.88;;
35887;SDS011;21990;42.540;23.496;2023-04-09T06:41:58;15.77;;;11.93;;
35887;SDS011;21990;42.540;23.496;2023-04-09T06:44:24;20.23;;;13.32;;
35887;SDS011;21990;42.540;23.496;2023-04-09T06:46:49;24.00;;;15.48;;
35887;SDS011;21990;42.540;23.496;2023-04-09T06:49:15;36.90;;;22.15;;
35887;SDS011;21990;42.540;23.496;2023-04-09T06:51:40;35.92;;;19.33;;
35887;SDS011;21990;42.540;23.496;2023-04-09T06:54:06;47.53;;;28.67;;
35887;SDS011;21990;42.540;23.496;2023-04-09T06:56:32;72.20;;;37.17;;
35887;SDS011;21990;42.540;23.496;2023-04-09T06:58:58;39.22;;;22.77;;
35887;SDS011;21990;42.540;23.496;2023-04-09T07:01:24;27.92;;;18.75;;
35887;SDS011;21990;42.540;23.496;2023-04-09T07:03:50;32.70;;;21.10;;
35887;SDS011;21990;42.540;23.496;2023-04-09T07:06:16;35.35;;;22.10;;
35887;SDS011;21990;42.540;23.496;2023-04-09T07:08:41;36.45;;;20.45;;
35887;SDS011;21990;42.540;23.496;2023-04-09T07:11:07;31.98;;;19.85;;
35887;SDS011;21990;42.540;23.496;2023-04-09T07:13:32;51.17;;;30.40;;
35887;SDS011;21990;42.540;23.496;2023-04-09T07:15:58;52.53;;;31.05;;
35887;SDS011;21990;42.540;23.496;2023-04-09T07:18:24;41.47;;;25.77;;
35887;SDS011;21990;42.540;23.496;2023-04-09T07:20:50;22.25;;;15.38;;
35887;SDS011;21990;42.540;23.496;2023-04-09T07:23:16;27.05;;;15.35;;
35887;SDS011;21990;42.540;23.496;2023-04-09T07:25:42;27.23;;;16.40;;
35887;SDS011;21990;42.540;23.496;2023-04-09T07:28:07;23.80;;;14.85;;
35887;SDS011;21990;42.540;23.496;2023-04-09T07:30:33;24.88;;;16.08;;
35887;SDS011;21990;42.540;23.496;2023-04-09T07:32:59;47.92;;;26.08;;
35887;SDS011;21990;42.540;23.496;2023-04-09T07:35:25;38.60;;;20.75;;
35887;SDS011;21990;42.540;23.496;2023-04-09T07:37:50;59.55;;;31.10;;
35887;SDS011;21990;42.540;23.496;2023-04-09T07:40:16;77.07;;;38.05;;
35887;SDS011;21990;42.540;23.496;2023-04-09T07:42:41;29.00;;;16.15;;
35887;SDS011;21990;42.540;23.496;2023-04-09T07:45:07;47.30;;;26.13;;
35887;SDS011;21990;42.540;23.496;2023-04-09T07:47:33;40.15;;;23.77;;
35887;SDS011;21990;42.540;23.496;2023-04-09T07:49:59;28.60;;;18.02;;
35887;SDS011;21990;42.540;23.496;2023-04-09T07:52:24;52.60;;;28.40;;
35887;SDS011;21990;42.540;23.496;2023-04-09T07:54:50;36.33;;;21.50;;
35887;SDS011;21990;42.540;23.496;2023-04-09T07:57:15;27.45;;;16.92;;
35887;SDS011;21990;42.540;23.496;2023-04-09T07:59:41;29.98;;;18.05;;
35887;SDS011;21990;42.540;23.496;2023-04-09T08:02:07;29.30;;;17.73;;
35887;SDS011;21990;42.540;23.496;2023-04-09T08:04:32;45.28;;;26.58;;
35887;SDS011;21990;42.540;23.496;2023-04-09T08:06:58;36.17;;;21.05;;
35887;SDS011;21990;42.540;23.496;2023-04-09T08:09:23;43.60;;;25.85;;
35887;SDS011;21990;42.540;23.496;2023-04-09T08:11:49;29.15;;;18.25;;
35887;SDS011;21990;42.540;23.496;2023-04-09T08:14:15;34.97;;;22.08;;
35887;SDS011;21990;42.540;23.496;2023-04-09T08:16:43;37.55;;;21.92;;
35887;SDS011;21990;42.540;23.496;2023-04-09T08:19:10;39.22;;;20.60;;
35887;SDS011;21990;42.540;23.496;2023-04-09T08:21:39;37.35;;;22.33;;
35887;SDS011;21990;42.540;23.496;2023-04-09T08:24:09;36.40;;;21.45;;
35887;SDS011;21990;42.540;23.496;2023-04-09T08:26:38;33.13;;;21.30;;
35887;SDS011;21990;42.540;23.496;2023-04-09T08:29:04;34.08;;;20.13;;
35887;SDS011;21990;42.540;23.496;2023-04-09T08:31:31;31.55;;;18.48;;
35887;SDS011;21990;42.540;23.496;2023-04-09T08:33:56;25.88;;;16.23;;
35887;SDS011;21990;42.540;23.496;2023-04-09T08:36:22;31.15;;;18.73;;
35887;SDS011;21990;42.540;23.496;2023-04-09T08:38:48;28.33;;;16.27;;
35887;SDS011;21990;42.540;23.496;2023-04-09T08:41:20;31.00;;;17.13;;
35887;SDS011;21990;42.540;23.496;2023-04-09T08:43:49;29.15;;;15.02;;
35887;SDS011;21990;42.540;23.496;2023-04-09T08:46:17;23.67;;;15.52;;
35887;SDS011;21990;42.540;23.496;2023-04-09T08:48:43;26.38;;;14.20;;
35887;SDS011;21990;42.540;23.496;2023-04-09T08:51:13;20.45;;;13.65;;
35887;SDS011;21990;42.540;23.496;2023-04-09T08:53:42;18.30;;;11.75;;
35887;SDS011;21990;42.540;23.496;2023-04-09T08:56:10;21.75;;;13.63;;
35887;SDS011;21990;42.540;23.496;2023-04-09T08:58:37;24.15;;;16.40;;
35887;SDS011;21990;42.540;23.496;2023-04-09T09:01:16;19.13;;;12.70;;
35887;SDS011;21990;42.540;23.496;2023-04-09T09:06:24;22.80;;;14.00;;
35887;SDS011;21990;42.540;23.496;2023-04-09T09:09:12;26.35;;;15.73;;
35887;SDS011;21990;42.540;23.496;2023-04-09T09:11:43;36.05;;;21.73;;
35887;SDS011;21990;42.540;23.496;2023-04-09T09:14:11;23.30;;;14.60;;
35887;SDS011;21990;42.540;23.496;2023-04-09T09:16:39;24.35;;;14.57;;
35887;SDS011;21990;42.540;23.496;2023-04-09T09:21:54;17.33;;;10.77;;
35887;SDS011;21990;42.540;23.496;2023-04-09T09:24:24;17.10;;;11.18;;
35887;SDS011;21990;42.540;23.496;2023-04-09T09:26:50;19.58;;;12.45;;
35887;SDS011;21990;42.540;23.496;2023-04-09T09:29:16;23.10;;;12.35;;
35887;SDS011;21990;42.540;23.496;2023-04-09T09:31:48;15.45;;;9.93;;
35887;SDS011;21990;42.540;23.496;2023-04-09T09:34:16;18.27;;;10.82;;
35887;SDS011;21990;42.540;23.496;2023-04-09T09:36:43;16.88;;;10.93;;
35887;SDS011;21990;42.540;23.496;2023-04-09T09:39:10;17.95;;;11.80;;
35887;SDS011;21990;42.540;23.496;2023-04-09T09:41:40;23.77;;;14.10;;
35887;SDS011;21990;42.540;23.496;2023-04-09T09:44:06;15.50;;;9.88;;
35887;SDS011;21990;42.540;23.496;2023-04-09T09:46:36;15.10;;;9.02;;
35887;SDS011;21990;42.540;23.496;2023-04-09T09:49:03;14.95;;;10.30;;
35887;SDS011;21990;42.540;23.496;2023-04-09T09:51:30;30.10;;;16.25;;
35887;SDS011;21990;42.540;23.496;2023-04-09T09:53:57;19.88;;;12.48;;
35887;SDS011;21990;42.540;23.496;2023-04-09T09:56:24;84.20;;;40.42;;
35887;SDS011;21990;42.540;23.496;2023-04-09T10:01:32;21.27;;;13.18;;
35887;SDS011;21990;42.540;23.496;2023-04-09T10:03:58;13.38;;;9.52;;
35887;SDS011;21990;42.540;23.496;2023-04-09T10:06:26;48.25;;;25.48;;
35887;SDS011;21990;42.540;23.496;2023-04-09T10:08:55;24.95;;;15.02;;
35887;SDS011;21990;42.540;23.496;2023-04-09T10:11:25;21.25;;;13.35;;
35887;SDS011;21990;42.540;23.496;2023-04-09T10:13:54;14.20;;;9.27;;
35887;SDS011;21990;42.540;23.496;2023-04-09T10:16:22;10.63;;;7.97;;
35887;SDS011;21990;42.540;23.496;2023-04-09T10:18:48;18.88;;;12.18;;
35887;SDS011;21990;42.540;23.496;2023-04-09T10:24:14;15.38;;;9.68;;
35887;SDS011;21990;42.540;23.496;2023-04-09T10:26:41;18.15;;;11.25;;
35887;SDS011;21990;42.540;23.496;2023-04-09T10:29:12;22.27;;;11.80;;
35887;SDS011;21990;42.540;23.496;2023-04-09T10:31:46;16.33;;;9.70;;
35887;SDS011;21990;42.540;23.496;2023-04-09T10:34:42;10.25;;;8.02;;
35887;SDS011;21990;42.540;23.496;2023-04-09T10:37:12;11.48;;;7.30;;
35887;SDS011;21990;42.540;23.496;2023-04-09T10:39:44;10.90;;;7.70;;
35887;SDS011;21990;42.540;23.496;2023-04-09T10:42:16;11.18;;;7.85;;
35887;SDS011;21990;42.540;23.496;2023-04-09T10:44:46;21.75;;;9.63;;
35887;SDS011;21990;42.540;23.496;2023-04-09T10:47:32;14.27;;;8.65;;
35887;SDS011;21990;42.540;23.496;2023-04-09T10:50:19;14.40;;;8.63;;
35887;SDS011;21990;42.540;23.496;2023-04-09T10:52:47;10.40;;;7.30;;
35887;SDS011;21990;42.540;23.496;2023-04-09T10:58:05;16.50;;;9.98;;
35887;SDS011;21990;42.540;23.496;2023-04-09T11:00:35;11.45;;;7.43;;
35887;SDS011;21990;42.540;23.496;2023-04-09T11:05:53;15.38;;;7.03;;
35887;SDS011;21990;42.540;23.496;2023-04-09T11:08:29;14.77;;;8.20;;
35887;SDS011;21990;42.540;23.496;2023-04-09T11:10:56;14.85;;;7.70;;
35887;SDS011;21990;42.540;23.496;2023-04-09T11:13:25;16.67;;;8.77;;
35887;SDS011;21990;42.540;23.496;2023-04-09T11:15:52;9.60;;;6.60;;
35887;SDS011;21990;42.540;23.496;2023-04-09T11:18:23;9.90;;;7.00;;
35887;SDS011;21990;42.540;23.496;2023-04-09T11:20:54;7.55;;;5.55;;
35887;SDS011;21990;42.540;23.496;2023-04-09T11:23:21;9.48;;;6.18;;
35887;SDS011;21990;42.540;23.496;2023-04-09T11:25:48;6.72;;;5.40;;
35887;SDS011;21990;42.540;23.496;2023-04-09T11:28:15;7.53;;;5.20;;
35887;SDS011;21990;42.540;23.496;2023-04-09T11:30:41;11.38;;;7.20;;
35887;SDS011;21990;42.540;23.496;2023-04-09T11:33:07;13.68;;;7.20;;
35887;SDS011;21990;42.540;23.496;2023-04-09T11:35:34;11.35;;;7.38;;
35887;SDS011;21990;42.540;23.496;2023-04-09T11:38:06;11.05;;;7.68;;
35887;SDS011;21990;42.540;23.496;2023-04-09T11:40:33;9.38;;;6.43;;
35887;SDS011;21990;42.540;23.496;2023-04-09T11:42:59;12.25;;;7.32;;
35887;SDS011;21990;42.540;23.496;2023-04-09T11:45:26;9.75;;;6.75;;
35887;SDS011;21990;42.540;23.496;2023-04-09T11:47:53;14.02;;;8.75;;
35887;SDS011;21990;42.540;23.496;2023-04-09T11:50:19;11.50;;;6.70;;
35887;SDS011;21990;42.540;23.496;2023-04-09T11:52:45;10.27;;;5.82;;
35887;SDS011;21990;42.540;23.496;2023-04-09T11:55:20;10.70;;;6.82;;
35887;SDS011;21990;42.540;23.496;2023-04-09T11:57:49;8.02;;;6.05;;
35887;SDS011;21990;42.540;23.496;2023-04-09T12:00:16;12.65;;;7.80;;
35887;SDS011;21990;42.540;23.496;2023-04-09T12:02:43;9.25;;;5.88;;
35887;SDS011;21990;42.540;23.496;2023-04-09T12:05:25;13.80;;;8.57;;
35887;SDS011;21990;42.540;23.496;2023-04-09T12:07:56;14.82;;;8.65;;
35887;SDS011;21990;42.540;23.496;2023-04-09T12:10:33;10.85;;;7.43;;
35887;SDS011;21990;42.540;23.496;2023-04-09T12:13:01;16.60;;;8.27;;
35887;SDS011;21990;42.540;23.496;2023-04-09T12:15:30;14.02;;;8.07;;
35887;SDS011;21990;42.540;23.496;2023-04-09T12:17:57;11.85;;;7.55;;
35887;SDS011;21990;42.540;23.496;2023-04-09T12:20:56;14.05;;;7.93;;
35887;SDS011;21990;42.540;23.496;2023-04-09T12:23:15;13.77;;;6.93;;
35887;SDS011;21990;42.540;23.496;2023-04-09T12:25:41;20.30;;;11.45;;
35887;SDS011;21990;42.540;23.496;2023-04-09T12:28:08;29.20;;;19.63;;
35887;SDS011;21990;42.540;23.496;2023-04-09T12:30:35;13.00;;;6.95;;
35887;SDS011;21990;42.540;23.496;2023-04-09T12:33:01;9.65;;;6.07;;
35887;SDS011;21990;42.540;23.496;2023-04-09T12:35:27;13.32;;;7.43;;
35887;SDS011;21990;42.540;23.496;2023-04-09T12:37:53;8.13;;;6.07;;
35887;SDS011;21990;42.540;23.496;2023-04-09T12:40:19;10.82;;;6.35;;
35887;SDS011;21990;42.540;23.496;2023-04-09T12:42:45;9.93;;;6.72;;
35887;SDS011;21990;42.540;23.496;2023-04-09T12:45:12;10.65;;;7.15;;
35887;SDS011;21990;42.540;23.496;2023-04-09T12:47:39;12.07;;;6.70;;
35887;SDS011;21990;42.540;23.496;2023-04-09T12:50:06;13.30;;;8.60;;
35887;SDS011;21990;42.540;23.496;2023-04-09T12:52:33;12.90;;;7.00;;
35887;SDS011;21990;42.540;23.496;2023-04-09T12:54:59;32.25;;;14.25;;
35887;SDS011;21990;42.540;23.496;2023-04-09T12:57:25;14.45;;;8.43;;
35887;SDS011;21990;42.540;23.496;2023-04-09T12:59:52;14.25;;;7.57;;
35887;SDS011;21990;42.540;23.496;2023-04-09T13:02:18;10.70;;;6.95;;
35887;SDS011;21990;42.540;23.496;2023-04-09T13:04:45;16.25;;;7.82;;
35887;SDS011;21990;42.540;23.496;2023-04-09T13:07:11;27.15;;;14.27;;
35887;SDS011;21990;42.540;23.496;2023-04-09T13:09:40;29.55;;;17.27;;
35887;SDS011;21990;42.540;23.496;2023-04-09T13:12:06;14.93;;;8.07;;
35887;SDS011;21990;42.540;23.496;2023-04-09T13:14:32;13.25;;;7.38;;
35887;SDS011;21990;42.540;23.496;2023-04-09T13:16:57;12.93;;;6.68;;
35887;SDS011;21990;42.540;23.496;2023-04-09T13:19:23;15.95;;;8.20;;
35887;SDS011;21990;42.540;23.496;2023-04-09T13:21:49;20.02;;;8.02;;
35887;SDS011;21990;42.540;23.496;2023-04-09T13:24:14;11.00;;;6.63;;
35887;SDS011;21990;42.540;23.496;2023-04-09T13:26:40;11.73;;;8.23;;
35887;SDS011;21990;42.540;23.496;2023-04-09T13:29:06;17.92;;;9.65;;
35887;SDS011;21990;42.540;23.496;2023-04-09T13:31:33;13.50;;;7.97;;
35887;SDS011;21990;42.540;23.496;2023-04-09T13:34:00;53.63;;;12.73;;
35887;SDS011;21990;42.540;23.496;2023-04-09T13:36:27;17.00;;;9.98;;
35887;SDS011;21990;42.540;23.496;2023-04-09T13:38:53;12.40;;;7.88;;
35887;SDS011;21990;42.540;23.496;2023-04-09T13:41:19;13.60;;;7.85;;
35887;SDS011;21990;42.540;23.496;2023-04-09T13:43:45;17.17;;;9.65;;
35887;SDS011;21990;42.540;23.496;2023-04-09T13:46:11;16.50;;;9.13;;
35887;SDS011;21990;42.540;23.496;2023-04-09T13:48:36;16.27;;;10.02;;
35887;SDS011;21990;42.540;23.496;2023-04-09T13:51:02;17.90;;;10.73;;
35887;SDS011;21990;42.540;23.496;2023-04-09T13:53:27;15.52;;;8.27;;
35887;SDS011;21990;42.540;23.496;2023-04-09T13:55:53;15.18;;;9.23;;
35887;SDS011;21990;42.540;23.496;2023-04-09T13:58:19;13.95;;;8.00;;
35887;SDS011;21990;42.540;23.496;2023-04-09T14:00:46;12.52;;;7.22;;
35887;SDS011;21990;42.540;23.496;2023-04-09T14:03:12;11.93;;;7.72;;
35887;SDS011;21990;42.540;23.496;2023-04-09T14:05:38;15.73;;;9.05;;
35887;SDS011;21990;42.540;23.496;2023-04-09T14:08:03;10.55;;;7.03;;
35887;SDS011;21990;42.540;23.496;2023-04-09T14:10:29;11.48;;;7.60;;
35887;SDS011;21990;42.540;23.496;2023-04-09T14:12:55;15.18;;;8.98;;
35887;SDS011;21990;42.540;23.496;2023-04-09T14:15:20;16.88;;;9.75;;
35887;SDS011;21990;42.540;23.496;2023-04-09T14:17:46;20.25;;;13.07;;
35887;SDS011;21990;42.540;23.496;2023-04-09T14:20:12;16.45;;;9.98;;
35887;SDS011;21990;42.540;23.496;2023-04-09T14:22:37;12.98;;;7.65;;
35887;SDS011;21990;42.540;23.496;2023-04-09T14:25:03;11.20;;;6.72;;
35887;SDS011;21990;42.540;23.496;2023-04-09T14:27:30;12.65;;;8.25;;
35887;SDS011;21990;42.540;23.496;2023-04-09T14:29:55;15.10;;;8.27;;
35887;SDS011;21990;42.540;23.496;2023-04-09T14:32:21;13.40;;;7.53;;
35887;SDS011;21990;42.540;23.496;2023-04-09T14:34:46;12.35;;;7.40;;
35887;SDS011;21990;42.540;23.496;2023-04-09T14:37:12;14.20;;;7.13;;
35887;SDS011;21990;42.540;23.496;2023-04-09T14:39:38;14.13;;;7.95;;